Afric Star — A8KJ8 — position and weather

sailwx.info

Track history (hours):
 
Tides and Currents Weather Stations Pressure Air Temp Water Temp Dewpoint Dewpoint Depression Visibility Wind Speed Wind Dir Waves Ship Positions

Afric Star

Last reported at 2017-Mar-26 16:33 UTC. Time now 2017-Mar-26 17:05 UTC.
Position N 60°04' E 029°03'.

Length 158 m; draft 8.7 m.

Type: Cargo ship. MMSI: 636013069.

Date/timePositionNaut miles runAvg speedWind from/ knotsBaromVisibWave heightAir tempDewpointWater temp
2017-Mar-26 16:33N 60°04' E 029°03'10 7.1
2017-Mar-26 15:06N 60°01' E 029°23'3 0.2
2017-Mar-26 00:33N 60°01' E 029°18'8 8.2
2017-Mar-25 23:33N 60°01' E 029°02'1110.8
2017-Mar-25 22:33N 60°02' E 028°40'1111.2
2017-Mar-25 21:33N 60°05' E 028°19'1211.6
2017-Mar-25 20:33N 60°10' E 027°57'1713.3
2017-Mar-25 19:17N 60°04' E 027°25'1314.7
2017-Mar-25 18:25N 59°58' E 027°03'1314.8
2017-Mar-25 17:34N 59°59' E 026°38'9014.9
2017-Mar-25 11:31N 59°37' E 023°44'1814.9
2017-Mar-25 10:19N 59°32' E 023°11'24814.8
2017-Mar-24 17:34N 56°31' E 017°50'1515.3
2017-Mar-24 16:33N 56°22' E 017°28'1515.2
2017-Mar-24 15:33N 56°13' E 017°06'1515.3
2017-Mar-24 14:34N 56°03' E 016°44'1515.2
2017-Mar-24 13:34N 55°56' E 016°21'1515.0
2017-Mar-24 12:34N 55°48' E 015°57'1515.0
2017-Mar-24 11:34N 55°41' E 015°34'1515.1
2017-Mar-24 10:34N 55°34' E 015°11'1515.3
2017-Mar-24 09:34N 55°26' E 014°47'1514.9
2017-Mar-24 08:34N 55°16' E 014°28'1615.4
2017-Mar-24 07:30N 55°03' E 014°10'1414.5
2017-Mar-24 06:33N 54°57' E 013°49'1514.6
2017-Mar-24 05:33N 54°52' E 013°25'1414.4
2017-Mar-24 04:33N 54°47' E 013°02'1413.8
2017-Mar-24 03:34N 54°43' E 012°39'1414.4
2017-Mar-24 02:34N 54°35' E 012°19'1313.2
2017-Mar-24 01:34N 54°24' E 012°05'1414.3
2017-Mar-24 00:34N 54°26' E 011°40'1515.1
2017-Mar-23 23:34N 54°33' E 011°18'1515.0
2017-Mar-23 22:34N 54°41' E 010°55'1413.6
2017-Mar-23 21:33N 54°54' E 010°53'1313.2
2017-Mar-23 20:33N 55°06' E 011°02'1313.4
2017-Mar-23 19:33N 55°20' E 011°02'4213.0
2017-Mar-23 16:21N 56°01' E 011°04'1414.9
2017-Mar-23 15:26N 56°13' E 011°18'5513.7
2017-Mar-23 11:25N 57°06' E 011°38'1314.6
2017-Mar-23 10:33N 57°18' E 011°30'1414.2
2017-Mar-23 09:33N 57°30' E 011°16'1514.7
2017-Mar-23 08:33N 57°40' E 010°56'1413.6
2017-Mar-23 07:33N 57°46' E 010°33'1615.5
2017-Mar-23 06:33N 57°41' E 010°05'2015.2
2017-Mar-23 05:16N 57°33' E 009°33'1115.2
2017-Mar-23 04:32N 57°27' E 009°15'12214.8
2017-Mar-22 20:19N 55°51' E 006°58'29814.2
2017-Mar-21 23:16N 51°39' E 002°28'1115.5
2017-Mar-21 22:33N 51°31' E 002°16'1615.7
2017-Mar-21 21:34N 51°20' E 001°59'1616.0
2017-Mar-21 20:34N 51°08' E 001°42'1615.9
2017-Mar-21 19:33N 50°56' E 001°25'4914.3
2017-Mar-21 16:07N 50°25' E 000°25'916.0
2017-Mar-21 15:34N 50°22' E 000°12'1716.4
2017-Mar-21 14:33N 50°18' W 000°13'3316.8
2017-Mar-21 12:33N 50°09' W 001°03'1616.5
2017-Mar-21 11:33N 50°05' W 001°28'1615.9
2017-Mar-21 10:34N 50°01' W 001°52'3515.0
2017-Mar-21 08:14N 49°51' W 002°44'1014.6
2017-Mar-21 07:32N 49°48' W 002°59'1414.7
2017-Mar-21 06:33N 49°43' W 003°20'  
2017-Mar-18 05:10N 39°38' W 027°60'1016.4
2017-Mar-18 04:33N 39°32' W 028°11'1616.5
2017-Mar-18 03:34N 39°24' W 028°29'1616.4
2017-Mar-18 02:33N 39°15' W 028°47'1616.5
2017-Mar-18 01:33N 39°07' W 029°06'1616.4
2017-Mar-18 00:33N 38°58' W 029°24'1716.7
2017-Mar-17 23:33N 38°50' W 029°42'1616.4
2017-Mar-17 22:33N 38°42' W 030°00'1616.4
2017-Mar-17 21:33N 38°33' W 030°18'1716.4
2017-Mar-17 20:33N 38°24' W 030°36'7216.5
2017-Mar-17 16:11N 37°48' W 031°56'  
Track history (hours):
 
Tides and Currents Weather Stations Pressure Air Temp Water Temp Dewpoint Dewpoint Depression Visibility Wind Speed Wind Dir Waves Ship Positions

Afric Star

Last reported at 2017-Mar-26 16:33 UTC. Time now 2017-Mar-26 17:05 UTC.
Position N 60°04' E 029°03'.

Length 158 m; draft 8.7 m.

Type: Cargo ship. MMSI: 636013069.

Date/timePositionNaut miles runAvg speedWind from/ knotsBaromVisibWave heightAir tempDewpointWater temp
2017-Mar-26 16:33N 60°04' E 029°03'10 7.1
2017-Mar-26 15:06N 60°01' E 029°23'3 0.2
2017-Mar-26 00:33N 60°01' E 029°18'8 8.2
2017-Mar-25 23:33N 60°01' E 029°02'1110.8
2017-Mar-25 22:33N 60°02' E 028°40'1111.2
2017-Mar-25 21:33N 60°05' E 028°19'1211.6
2017-Mar-25 20:33N 60°10' E 027°57'1713.3
2017-Mar-25 19:17N 60°04' E 027°25'1314.7
2017-Mar-25 18:25N 59°58' E 027°03'1314.8
2017-Mar-25 17:34N 59°59' E 026°38'9014.9
2017-Mar-25 11:31N 59°37' E 023°44'1814.9
2017-Mar-25 10:19N 59°32' E 023°11'24814.8
2017-Mar-24 17:34N 56°31' E 017°50'1515.3
2017-Mar-24 16:33N 56°22' E 017°28'1515.2
2017-Mar-24 15:33N 56°13' E 017°06'1515.3
2017-Mar-24 14:34N 56°03' E 016°44'1515.2
2017-Mar-24 13:34N 55°56' E 016°21'1515.0
2017-Mar-24 12:34N 55°48' E 015°57'1515.0
2017-Mar-24 11:34N 55°41' E 015°34'1515.1
2017-Mar-24 10:34N 55°34' E 015°11'1515.3
2017-Mar-24 09:34N 55°26' E 014°47'1514.9
2017-Mar-24 08:34N 55°16' E 014°28'1615.4
2017-Mar-24 07:30N 55°03' E 014°10'1414.5
2017-Mar-24 06:33N 54°57' E 013°49'1514.6
2017-Mar-24 05:33N 54°52' E 013°25'1414.4
2017-Mar-24 04:33N 54°47' E 013°02'1413.8
2017-Mar-24 03:34N 54°43' E 012°39'1414.4
2017-Mar-24 02:34N 54°35' E 012°19'1313.2
2017-Mar-24 01:34N 54°24' E 012°05'1414.3
2017-Mar-24 00:34N 54°26' E 011°40'1515.1
2017-Mar-23 23:34N 54°33' E 011°18'1515.0
2017-Mar-23 22:34N 54°41' E 010°55'1413.6
2017-Mar-23 21:33N 54°54' E 010°53'1313.2
2017-Mar-23 20:33N 55°06' E 011°02'1313.4
2017-Mar-23 19:33N 55°20' E 011°02'4213.0
2017-Mar-23 16:21N 56°01' E 011°04'1414.9
2017-Mar-23 15:26N 56°13' E 011°18'5513.7
2017-Mar-23 11:25N 57°06' E 011°38'1314.6
2017-Mar-23 10:33N 57°18' E 011°30'1414.2
2017-Mar-23 09:33N 57°30' E 011°16'1514.7
2017-Mar-23 08:33N 57°40' E 010°56'1413.6
2017-Mar-23 07:33N 57°46' E 010°33'1615.5
2017-Mar-23 06:33N 57°41' E 010°05'2015.2
2017-Mar-23 05:16N 57°33' E 009°33'1115.2
2017-Mar-23 04:32N 57°27' E 009°15'12214.8
2017-Mar-22 20:19N 55°51' E 006°58'29814.2
2017-Mar-21 23:16N 51°39' E 002°28'1115.5
2017-Mar-21 22:33N 51°31' E 002°16'1615.7
2017-Mar-21 21:34N 51°20' E 001°59'1616.0
2017-Mar-21 20:34N 51°08' E 001°42'1615.9
2017-Mar-21 19:33N 50°56' E 001°25'4914.3
2017-Mar-21 16:07N 50°25' E 000°25'916.0
2017-Mar-21 15:34N 50°22' E 000°12'1716.4
2017-Mar-21 14:33N 50°18' W 000°13'3316.8
2017-Mar-21 12:33N 50°09' W 001°03'1616.5
2017-Mar-21 11:33N 50°05' W 001°28'1615.9
2017-Mar-21 10:34N 50°01' W 001°52'3515.0
2017-Mar-21 08:14N 49°51' W 002°44'1014.6
2017-Mar-21 07:32N 49°48' W 002°59'1414.7
2017-Mar-21 06:33N 49°43' W 003°20'  
2017-Mar-18 05:10N 39°38' W 027°60'1016.4
2017-Mar-18 04:33N 39°32' W 028°11'1616.5
2017-Mar-18 03:34N 39°24' W 028°29'1616.4
2017-Mar-18 02:33N 39°15' W 028°47'1616.5
2017-Mar-18 01:33N 39°07' W 029°06'1616.4
2017-Mar-18 00:33N 38°58' W 029°24'1716.7
2017-Mar-17 23:33N 38°50' W 029°42'1616.4
2017-Mar-17 22:33N 38°42' W 030°00'1616.4
2017-Mar-17 21:33N 38°33' W 030°18'1716.4
2017-Mar-17 20:33N 38°24' W 030°36'7216.5
2017-Mar-17 16:11N 37°48' W 031°56'  

Dump ship's entire track history